createdAt,value
2017-12-05T00:00:02.521Z,9.83
2017-12-05T00:02:30.081Z,8.17
2017-12-05T00:04:57.594Z,9.67
2017-12-05T00:07:30.149Z,8.23
2017-12-05T00:09:57.672Z,8.60
2017-12-05T00:12:25.229Z,9.27
2017-12-05T00:14:52.788Z,9.40
2017-12-05T00:17:20.313Z,9.30
2017-12-05T00:19:47.830Z,9.73
2017-12-05T00:22:15.377Z,8.73
2017-12-05T00:24:42.899Z,9.47
2017-12-05T00:27:10.463Z,9.23
2017-12-05T00:29:37.997Z,9.27
2017-12-05T00:32:05.572Z,9.17
2017-12-05T00:34:33.142Z,9.63
2017-12-05T00:37:00.661Z,11.20
2017-12-05T00:39:28.221Z,9.37
2017-12-05T00:41:55.797Z,9.33
2017-12-05T00:44:23.358Z,10.13
2017-12-05T00:46:50.916Z,11.37
2017-12-05T00:49:18.441Z,11.00
2017-12-05T00:51:45.953Z,9.17
2017-12-05T00:54:13.485Z,9.20
2017-12-05T00:56:41.772Z,9.10
2017-12-05T00:59:10.069Z,9.83
2017-12-05T01:01:37.625Z,8.43
2017-12-05T01:04:05.165Z,8.23
2017-12-05T01:06:32.717Z,8.57
2017-12-05T01:09:00.254Z,8.77
2017-12-05T01:11:27.801Z,8.13
2017-12-05T01:13:55.326Z,8.73
2017-12-05T01:16:22.881Z,8.40
2017-12-05T01:18:50.402Z,9.07
2017-12-05T01:21:17.972Z,8.23
2017-12-05T01:23:45.530Z,8.77
2017-12-05T01:26:13.081Z,9.10
2017-12-05T01:28:40.611Z,8.77
2017-12-05T01:31:08.186Z,9.53
2017-12-05T01:33:35.727Z,8.70
2017-12-05T01:36:03.278Z,8.73
2017-12-05T01:38:31.602Z,9.47
2017-12-05T01:40:59.138Z,9.37
2017-12-05T01:43:26.701Z,9.70
2017-12-05T01:45:54.249Z,9.00
2017-12-05T01:48:26.835Z,9.83
2017-12-05T01:50:54.362Z,8.87
2017-12-05T01:53:22.686Z,10.27
2017-12-05T01:55:50.250Z,9.17
2017-12-05T01:58:17.769Z,10.13
2017-12-05T02:00:47.073Z,9.67
2017-12-05T02:03:15.353Z,9.33
2017-12-05T02:05:42.906Z,10.10
2017-12-05T02:08:10.437Z,10.40
2017-12-05T02:10:37.997Z,9.87
2017-12-05T02:13:05.592Z,9.57
2017-12-05T02:15:33.883Z,10.50
2017-12-05T02:18:01.434Z,8.83
2017-12-05T02:20:28.962Z,9.80
2017-12-05T02:22:56.517Z,9.87
2017-12-05T02:25:24.209Z,9.47
2017-12-05T02:27:51.733Z,9.70
2017-12-05T02:30:19.286Z,10.50
2017-12-05T02:32:46.837Z,10.67
2017-12-05T02:35:14.379Z,9.93
2017-12-05T02:37:41.900Z,10.50
2017-12-05T02:40:10.221Z,9.20
2017-12-05T02:42:37.740Z,9.37
2017-12-05T02:45:06.065Z,9.40
2017-12-05T02:47:33.585Z,9.13
2017-12-05T02:50:01.105Z,8.83
2017-12-05T02:52:28.685Z,9.03
2017-12-05T02:54:56.245Z,9.07
2017-12-05T02:57:24.544Z,9.63
2017-12-05T02:59:52.088Z,8.57
2017-12-05T03:02:20.388Z,9.50
2017-12-05T03:04:47.941Z,9.80
2017-12-05T03:07:15.479Z,9.10
2017-12-05T03:09:42.991Z,8.53
2017-12-05T03:12:10.538Z,8.73
2017-12-05T03:14:38.053Z,8.67
2017-12-05T03:17:06.341Z,9.40
2017-12-05T03:19:33.891Z,9.27
2017-12-05T03:22:02.171Z,8.90
2017-12-05T03:24:29.692Z,8.83
2017-12-05T03:26:57.237Z,9.10
2017-12-05T03:29:24.748Z,8.67
2017-12-05T03:31:53.059Z,9.83
2017-12-05T03:34:20.564Z,9.10
2017-12-05T03:36:48.073Z,8.90
2017-12-05T03:39:15.731Z,10.37
2017-12-05T03:41:43.272Z,9.17
2017-12-05T03:44:10.783Z,9.00
2017-12-05T03:46:38.337Z,10.17
2017-12-05T03:49:05.880Z,9.57
2017-12-05T03:51:33.391Z,9.00
2017-12-05T03:54:00.931Z,9.03
2017-12-05T03:56:28.436Z,9.07
2017-12-05T03:58:56.003Z,9.27
2017-12-05T04:01:23.540Z,9.77
2017-12-05T04:03:51.816Z,9.57
2017-12-05T04:06:20.136Z,9.27
2017-12-05T04:08:47.676Z,9.77
2017-12-05T04:11:15.220Z,9.90
2017-12-05T04:13:42.738Z,8.63
2017-12-05T04:16:10.293Z,8.90
2017-12-05T04:18:37.808Z,10.27
2017-12-05T04:21:05.359Z,9.27
2017-12-05T04:23:32.871Z,9.70
2017-12-05T04:26:00.408Z,9.03
2017-12-05T04:28:27.952Z,9.97
2017-12-05T04:30:55.463Z,9.47
2017-12-05T04:33:22.982Z,9.37
2017-12-05T04:35:50.527Z,8.70
2017-12-05T04:38:18.077Z,9.57
2017-12-05T04:40:45.659Z,8.67
2017-12-05T04:43:13.204Z,10.50
2017-12-05T04:45:40.712Z,10.97
2017-12-05T04:48:08.224Z,10.23
2017-12-05T04:50:35.756Z,9.53
2017-12-05T04:53:04.068Z,9.87
2017-12-05T04:55:31.645Z,8.23
2017-12-05T04:57:59.164Z,10.00
2017-12-05T05:00:26.673Z,9.20
2017-12-05T05:02:54.216Z,9.23
2017-12-05T05:05:21.765Z,9.10
2017-12-05T05:07:49.316Z,10.30
2017-12-05T05:10:26.467Z,8.90
2017-12-05T05:12:54.013Z,9.80
2017-12-05T05:15:21.521Z,9.23
2017-12-05T05:17:49.079Z,9.73
2017-12-05T05:20:16.611Z,10.00
2017-12-05T05:22:44.150Z,8.13
2017-12-05T05:25:11.690Z,9.53
2017-12-05T05:27:39.239Z,9.27
2017-12-05T05:30:16.372Z,9.00
2017-12-05T05:32:43.904Z,9.10
2017-12-05T05:35:11.427Z,9.03
2017-12-05T05:37:38.957Z,9.77
2017-12-05T05:40:06.499Z,9.43
2017-12-05T05:42:34.065Z,9.30
2017-12-05T05:45:02.360Z,9.87
2017-12-05T05:47:30.128Z,10.97
2017-12-05T05:49:57.640Z,9.20
2017-12-05T05:52:25.187Z,9.17
2017-12-05T05:54:52.728Z,8.97
2017-12-05T05:57:20.232Z,9.57
2017-12-05T05:59:47.777Z,9.10
2017-12-05T06:02:15.345Z,8.70
2017-12-05T06:04:42.872Z,9.33
2017-12-05T06:07:10.420Z,9.37
2017-12-05T06:09:38.276Z,8.60
2017-12-05T06:12:05.847Z,9.40
2017-12-05T06:14:33.372Z,9.53
2017-12-05T06:17:00.935Z,9.47
2017-12-05T06:19:29.225Z,9.23
2017-12-05T06:21:56.737Z,9.00
2017-12-05T06:24:24.294Z,11.97
2017-12-05T06:26:51.821Z,9.00
2017-12-05T06:29:19.428Z,9.70
2017-12-05T06:31:47.795Z,9.13
2017-12-05T06:34:15.398Z,9.63
2017-12-05T06:36:42.911Z,9.87
2017-12-05T06:39:10.476Z,10.97
2017-12-05T06:41:38.023Z,9.57
2017-12-05T06:44:05.551Z,8.33
2017-12-05T06:46:33.061Z,9.47
2017-12-05T06:49:00.622Z,10.77
2017-12-05T06:51:28.132Z,9.33
2017-12-05T06:53:55.757Z,9.47
2017-12-05T06:56:23.416Z,10.70
2017-12-05T06:58:50.974Z,8.80
2017-12-05T07:01:18.506Z,10.03
2017-12-05T07:03:46.070Z,8.97
2017-12-05T07:06:13.585Z,9.30
2017-12-05T07:08:41.096Z,9.57
2017-12-05T07:11:08.639Z,8.70
2017-12-05T07:13:36.151Z,9.27
2017-12-05T07:16:03.780Z,9.17
2017-12-05T07:18:31.322Z,9.37
2017-12-05T07:20:58.840Z,10.53
2017-12-05T07:23:26.409Z,9.67
2017-12-05T07:25:53.911Z,9.93
2017-12-05T07:28:21.531Z,9.33
2017-12-05T07:30:49.056Z,9.67
2017-12-05T07:33:17.387Z,10.60
2017-12-05T07:35:44.965Z,9.90
2017-12-05T07:38:12.492Z,10.07
2017-12-05T07:40:40.068Z,10.07
2017-12-05T07:43:07.623Z,9.40
2017-12-05T07:45:35.154Z,9.67
2017-12-05T07:48:02.691Z,9.87
2017-12-05T07:50:30.968Z,9.67
2017-12-05T07:52:58.551Z,10.23
2017-12-05T07:55:26.081Z,9.63
2017-12-05T07:57:53.685Z,9.90
2017-12-05T08:00:21.229Z,11.23
2017-12-05T08:02:48.818Z,10.23
2017-12-05T08:05:16.366Z,10.13
2017-12-05T08:07:43.946Z,10.53
2017-12-05T08:10:11.459Z,10.33
2017-12-05T08:12:39.017Z,9.33
2017-12-05T08:15:06.564Z,10.17
2017-12-05T08:17:34.839Z,10.07
2017-12-05T08:20:07.548Z,11.53
2017-12-05T08:22:35.121Z,10.43
2017-12-05T08:25:02.715Z,10.53
2017-12-05T08:27:30.283Z,11.30
2017-12-05T08:29:58.607Z,10.07
2017-12-05T08:32:26.140Z,11.37
2017-12-05T08:34:53.708Z,11.50
2017-12-05T08:37:21.240Z,11.50
2017-12-05T08:39:48.848Z,11.33
2017-12-05T08:42:16.360Z,10.83
2017-12-05T08:44:43.972Z,11.63
2017-12-05T08:47:11.488Z,12.00
2017-12-05T08:49:39.810Z,11.77
2017-12-05T08:52:07.408Z,11.90
2017-12-05T08:54:34.944Z,13.27
2017-12-05T08:57:02.521Z,12.00
2017-12-05T08:59:30.217Z,10.80
2017-12-05T09:01:58.071Z,10.43
2017-12-05T09:04:26.364Z,10.50
2017-12-05T09:06:53.927Z,10.23
2017-12-05T09:09:21.645Z,11.43
2017-12-05T09:11:49.164Z,10.27
2017-12-05T09:14:16.737Z,11.60
2017-12-05T09:16:44.263Z,11.77
2017-12-05T09:19:11.778Z,10.47
2017-12-05T09:21:39.346Z,10.53
2017-12-05T09:24:07.818Z,10.00
2017-12-05T09:26:35.375Z,10.57
2017-12-05T09:29:02.941Z,9.80
2017-12-05T09:31:30.746Z,9.57
2017-12-05T09:33:58.828Z,10.33
2017-12-05T09:36:26.376Z,10.13
2017-12-05T09:38:53.977Z,9.50
2017-12-05T09:41:21.621Z,10.17
2017-12-05T09:43:49.224Z,10.97
2017-12-05T09:46:16.763Z,10.13
2017-12-05T09:48:44.332Z,9.57
2017-12-05T09:51:11.964Z,10.10
2017-12-05T09:53:39.483Z,9.97
2017-12-05T09:56:07.040Z,9.77
2017-12-05T09:58:34.548Z,9.73
2017-12-05T10:01:02.201Z,9.77
2017-12-05T10:03:29.725Z,10.87
2017-12-05T10:05:58.165Z,9.73
2017-12-05T10:08:25.738Z,9.97
2017-12-05T10:10:53.284Z,9.53
2017-12-05T10:13:20.848Z,9.83
2017-12-05T10:15:48.460Z,10.07
2017-12-05T10:18:16.102Z,10.30
2017-12-05T10:20:43.656Z,10.30
2017-12-05T10:23:11.175Z,10.17
2017-12-05T10:25:38.962Z,10.23
2017-12-05T10:28:06.565Z,9.50
2017-12-05T10:30:34.876Z,10.53
2017-12-05T10:33:02.400Z,11.00
2017-12-05T10:35:29.962Z,10.43
2017-12-05T10:37:57.488Z,9.27
2017-12-05T10:40:25.187Z,12.57
2017-12-05T10:42:53.669Z,11.27
2017-12-05T10:45:21.249Z,10.33
2017-12-05T10:47:48.823Z,10.93
2017-12-05T10:50:16.737Z,10.13
2017-12-05T10:52:44.324Z,10.30
2017-12-05T10:55:11.871Z,11.33
2017-12-05T10:57:40.190Z,10.47
2017-12-05T11:00:07.780Z,10.00
2017-12-05T11:02:35.731Z,9.60
2017-12-05T11:05:03.672Z,9.80
2017-12-05T11:07:31.332Z,9.97
2017-12-05T11:09:59.047Z,9.53
2017-12-05T11:12:26.710Z,8.90
2017-12-05T11:14:54.249Z,9.07
2017-12-05T11:17:21.866Z,9.87
2017-12-05T11:19:49.394Z,9.63
2017-12-05T11:22:17.280Z,9.70
2017-12-05T11:24:45.572Z,10.53
2017-12-05T11:27:13.106Z,10.07
2017-12-05T11:29:40.789Z,10.60
2017-12-05T11:32:08.627Z,9.57
2017-12-05T11:34:36.903Z,9.23
2017-12-05T11:37:04.456Z,9.40
2017-12-05T11:39:31.989Z,10.40
2017-12-05T11:42:04.878Z,9.40
2017-12-05T11:44:32.433Z,9.70
2017-12-05T11:46:59.959Z,9.43
2017-12-05T11:49:27.543Z,9.13
2017-12-05T11:51:55.321Z,8.87
2017-12-05T11:54:22.904Z,9.50
2017-12-05T11:56:50.411Z,9.20
2017-12-05T11:59:17.980Z,9.93
2017-12-05T12:01:45.540Z,10.23
2017-12-05T12:04:13.098Z,11.00
2017-12-05T12:06:40.613Z,10.60
2017-12-05T12:09:08.165Z,10.27
2017-12-05T12:11:35.878Z,10.43
2017-12-05T12:14:03.430Z,10.77
2017-12-05T12:16:30.990Z,9.80
2017-12-05T12:18:58.504Z,10.00
2017-12-05T12:21:26.082Z,10.70
2017-12-05T12:23:53.682Z,10.70
2017-12-05T12:26:21.230Z,11.03
2017-12-05T12:28:48.789Z,10.80
2017-12-05T12:31:16.758Z,10.47
2017-12-05T12:33:44.300Z,11.23
2017-12-05T12:36:12.217Z,10.40
2017-12-05T12:38:39.817Z,10.87
2017-12-05T12:41:07.355Z,11.30
2017-12-05T12:43:34.869Z,11.73
2017-12-05T12:46:02.503Z,11.80
2017-12-05T12:48:30.027Z,12.70
2017-12-05T12:50:57.598Z,11.40
2017-12-05T12:53:25.121Z,12.50
2017-12-05T12:55:52.645Z,12.00
2017-12-05T12:58:21.932Z,12.70
2017-12-05T13:00:49.495Z,11.40
2017-12-05T13:03:17.020Z,12.47
2017-12-05T13:05:44.601Z,12.30
2017-12-05T13:08:12.160Z,12.33
2017-12-05T13:10:39.712Z,12.10
2017-12-05T13:13:07.300Z,12.73
2017-12-05T13:15:35.599Z,11.60
2017-12-05T13:18:03.127Z,11.17
2017-12-05T13:20:30.796Z,11.67
2017-12-05T13:22:58.312Z,11.87
2017-12-05T13:25:25.872Z,12.43
2017-12-05T13:27:53.411Z,12.47
2017-12-05T13:30:20.999Z,11.90
2017-12-05T13:32:48.521Z,11.63
2017-12-05T13:35:16.038Z,11.70
2017-12-05T13:37:43.625Z,11.03
2017-12-05T13:40:11.165Z,12.37
2017-12-05T13:42:39.521Z,13.00
2017-12-05T13:45:07.060Z,13.07
2017-12-05T13:47:34.596Z,12.70
2017-12-05T13:50:02.156Z,11.53
2017-12-05T13:52:29.801Z,11.57
2017-12-05T13:54:57.354Z,12.27
2017-12-05T13:57:24.920Z,12.10
2017-12-05T13:59:52.436Z,11.17
2017-12-05T14:02:20.001Z,11.33
2017-12-05T14:04:47.660Z,10.50
2017-12-05T14:07:15.208Z,11.63
2017-12-05T14:09:42.768Z,10.70
2017-12-05T14:12:10.448Z,11.03
2017-12-05T14:14:38.008Z,11.23
2017-12-05T14:17:05.612Z,12.43
2017-12-05T14:19:33.172Z,11.33
2017-12-05T14:22:00.929Z,13.63
2017-12-05T14:24:28.444Z,11.30
2017-12-05T14:26:55.960Z,10.93
2017-12-05T14:29:23.506Z,10.90
2017-12-05T14:31:51.237Z,11.40
2017-12-05T14:34:18.779Z,11.20
2017-12-05T14:36:46.292Z,13.40
2017-12-05T14:39:13.875Z,13.43
2017-12-05T14:41:41.472Z,12.30
2017-12-05T14:44:09.022Z,12.50
2017-12-05T14:46:36.601Z,13.57
2017-12-05T14:49:04.909Z,12.57
2017-12-05T14:51:32.487Z,12.40
2017-12-05T14:54:00.354Z,15.07
2017-12-05T14:56:27.860Z,14.13
2017-12-05T14:58:55.672Z,14.33
2017-12-05T15:01:23.265Z,13.90
2017-12-05T15:03:51.086Z,13.30
2017-12-05T15:06:18.651Z,11.63
2017-12-05T15:08:46.167Z,13.57
2017-12-05T15:11:13.719Z,14.00
2017-12-05T15:13:41.541Z,13.63
2017-12-05T15:16:09.100Z,11.70
2017-12-05T15:18:36.632Z,12.30
2017-12-05T15:21:04.965Z,12.90
2017-12-05T15:23:32.977Z,11.30
2017-12-05T15:26:01.257Z,14.10
2017-12-05T15:28:29.633Z,11.87
2017-12-05T15:30:57.193Z,11.90
2017-12-05T15:33:25.513Z,13.03
2017-12-05T15:35:54.238Z,11.70
2017-12-05T15:38:21.767Z,12.43
2017-12-05T15:40:49.346Z,11.97
2017-12-05T15:43:16.908Z,13.10
2017-12-05T15:45:44.437Z,14.07
2017-12-05T15:48:12.080Z,13.10
2017-12-05T15:50:39.617Z,12.43
2017-12-05T15:53:07.311Z,12.23
2017-12-05T15:55:34.869Z,11.90
2017-12-05T15:58:02.446Z,11.07
2017-12-05T16:00:30.040Z,13.60
2017-12-05T16:02:57.592Z,12.57
2017-12-05T16:05:25.116Z,13.00
2017-12-05T16:07:52.690Z,12.77
2017-12-05T16:10:20.191Z,11.40
2017-12-05T16:12:48.517Z,11.70
2017-12-05T16:15:16.035Z,11.00
2017-12-05T16:17:44.352Z,11.80
2017-12-05T16:20:11.869Z,11.70
2017-12-05T16:22:39.420Z,11.20
2017-12-05T16:25:07.704Z,10.17
2017-12-05T16:27:35.240Z,11.53
2017-12-05T16:30:02.753Z,11.77
2017-12-05T16:32:30.287Z,11.03
2017-12-05T16:34:57.813Z,11.73
2017-12-05T16:37:25.380Z,12.63
2017-12-05T16:39:52.916Z,13.97
2017-12-05T16:42:20.471Z,15.00
2017-12-05T16:44:48.011Z,13.60
2017-12-05T16:47:15.525Z,14.47
2017-12-05T16:49:43.081Z,13.70
2017-12-05T16:52:10.803Z,12.90
2017-12-05T16:54:38.331Z,12.40
2017-12-05T16:57:05.876Z,12.77
2017-12-05T16:59:34.477Z,13.00
2017-12-05T17:02:02.011Z,12.97
2017-12-05T17:04:30.339Z,12.60
2017-12-05T17:06:58.448Z,12.93
2017-12-05T17:09:26.048Z,12.03
2017-12-05T17:11:53.557Z,11.57
2017-12-05T17:14:21.104Z,12.83
2017-12-05T17:16:48.954Z,12.60
2017-12-05T17:19:16.719Z,12.80
2017-12-05T17:21:44.288Z,13.10
2017-12-05T17:24:11.903Z,13.40
2017-12-05T17:26:40.204Z,12.33
2017-12-05T17:29:08.071Z,12.43
2017-12-05T17:31:35.600Z,12.77
2017-12-05T17:34:04.220Z,13.07
2017-12-05T17:36:31.808Z,12.37
2017-12-05T17:38:59.339Z,12.47
2017-12-05T17:41:26.885Z,12.40
2017-12-05T17:43:54.416Z,12.63
2017-12-05T17:46:21.976Z,12.50
2017-12-05T17:48:49.514Z,13.57
2017-12-05T17:51:17.851Z,13.00
2017-12-05T17:53:45.400Z,12.50
2017-12-05T17:56:12.966Z,13.57
2017-12-05T17:58:40.524Z,14.20
2017-12-05T18:01:08.085Z,13.53
2017-12-05T18:03:35.750Z,13.97
2017-12-05T18:06:03.305Z,13.27
2017-12-05T18:08:30.866Z,13.00
2017-12-05T18:10:58.419Z,13.67
2017-12-05T18:13:26.218Z,13.93
2017-12-05T18:15:53.956Z,12.23
2017-12-05T18:18:21.584Z,14.53
2017-12-05T18:20:49.139Z,14.70
2017-12-05T18:23:16.684Z,13.67
2017-12-05T18:25:44.197Z,13.30
2017-12-05T18:28:11.916Z,13.60
2017-12-05T18:30:39.434Z,14.33
2017-12-05T18:33:06.986Z,12.83
2017-12-05T18:35:34.570Z,11.77
2017-12-05T18:38:02.149Z,13.03
2017-12-05T18:40:29.707Z,13.10
2017-12-05T18:42:57.268Z,13.93
2017-12-05T18:45:24.787Z,14.17
2017-12-05T18:47:52.347Z,14.57
2017-12-05T18:50:19.898Z,14.83
2017-12-05T18:52:47.747Z,13.43
2017-12-05T18:55:15.273Z,16.63
2017-12-05T18:57:42.860Z,15.17
2017-12-05T19:00:10.429Z,14.57
2017-12-05T19:02:37.955Z,14.47
2017-12-05T19:05:05.499Z,13.10
2017-12-05T19:07:33.032Z,14.80
2017-12-05T19:10:00.599Z,14.73
2017-12-05T19:12:28.124Z,14.47
2017-12-05T19:14:55.687Z,14.43
2017-12-05T19:17:23.228Z,15.00
2017-12-05T19:19:51.552Z,13.17
2017-12-05T19:22:19.103Z,14.33
2017-12-05T19:24:46.619Z,14.33
2017-12-05T19:27:14.187Z,14.53
2017-12-05T19:29:41.713Z,14.63
2017-12-05T19:32:09.223Z,14.33
2017-12-05T19:34:36.849Z,15.03
2017-12-05T19:37:04.420Z,16.33
2017-12-05T19:39:32.776Z,14.33
2017-12-05T19:42:00.279Z,15.47
2017-12-05T19:44:27.855Z,15.77
2017-12-05T19:46:55.826Z,16.37
2017-12-05T19:49:23.429Z,17.20
2017-12-05T19:51:51.002Z,16.43
2017-12-05T19:54:19.388Z,16.57
2017-12-05T19:56:47.717Z,16.60
2017-12-05T19:59:15.273Z,16.00
2017-12-05T20:01:42.833Z,16.43
2017-12-05T20:04:10.357Z,14.90
2017-12-05T20:06:37.882Z,13.90
2017-12-05T20:09:05.453Z,14.33
2017-12-05T20:11:33.024Z,14.30
2017-12-05T20:14:00.539Z,14.87
2017-12-05T20:16:28.155Z,14.97
2017-12-05T20:18:56.151Z,15.83
2017-12-05T20:21:23.704Z,14.73
2017-12-05T20:23:51.228Z,15.00
2017-12-05T20:26:18.783Z,15.40
2017-12-05T20:28:47.072Z,16.13
2017-12-05T20:31:14.623Z,15.57
2017-12-05T20:33:44.672Z,14.90
2017-12-05T20:36:12.208Z,15.03
2017-12-05T20:38:39.768Z,14.43
2017-12-05T20:41:08.094Z,15.03
2017-12-05T20:43:35.637Z,14.60
2017-12-05T20:46:03.190Z,14.57
2017-12-05T20:48:30.699Z,15.33
2017-12-05T20:50:58.260Z,13.37
2017-12-05T20:53:25.795Z,16.07
2017-12-05T20:55:53.326Z,15.47
2017-12-05T20:58:20.916Z,15.30
2017-12-05T21:00:48.435Z,15.10
2017-12-05T21:03:16.027Z,16.67
2017-12-05T21:05:43.590Z,15.43
2017-12-05T21:08:11.164Z,16.63
2017-12-05T21:10:38.697Z,14.00
2017-12-05T21:13:06.227Z,16.13
2017-12-05T21:15:33.789Z,15.70
2017-12-05T21:18:02.100Z,15.53
2017-12-05T21:20:29.651Z,15.77
2017-12-05T21:22:57.217Z,16.87
2017-12-05T21:25:24.747Z,15.77
2017-12-05T21:27:52.254Z,16.77
2017-12-05T21:30:19.820Z,15.07
2017-12-05T21:32:47.550Z,15.70
2017-12-05T21:35:15.100Z,16.23
2017-12-05T21:37:42.628Z,16.07
2017-12-05T21:40:10.188Z,15.73
2017-12-05T21:42:37.768Z,15.43
2017-12-05T21:45:05.304Z,14.93
2017-12-05T21:47:32.867Z,15.20
2017-12-05T21:50:00.401Z,17.03
2017-12-05T21:52:27.956Z,16.07
2017-12-05T21:54:55.492Z,17.80
2017-12-05T21:57:23.055Z,17.37
2017-12-05T21:59:50.584Z,16.33
2017-12-05T22:02:18.200Z,15.27
2017-12-05T22:04:45.784Z,15.27
2017-12-05T22:07:13.309Z,15.90
2017-12-05T22:09:40.893Z,15.00
2017-12-05T22:12:08.435Z,15.67
2017-12-05T22:14:35.945Z,13.97
2017-12-05T22:17:03.514Z,17.97
2017-12-05T22:19:31.058Z,18.90
2017-12-05T22:21:59.378Z,17.03
2017-12-05T22:24:26.943Z,16.80
2017-12-05T22:26:54.642Z,17.80
2017-12-05T22:29:22.928Z,17.73
2017-12-05T22:31:51.502Z,16.60
2017-12-05T22:34:19.528Z,15.97
2017-12-05T22:36:47.088Z,18.37
2017-12-05T22:39:14.613Z,15.47
2017-12-05T22:41:42.133Z,16.60
2017-12-05T22:44:09.695Z,14.77
2017-12-05T22:46:37.223Z,16.60
2017-12-05T22:49:04.782Z,15.30
2017-12-05T22:51:32.300Z,16.07
2017-12-05T22:54:00.628Z,15.57
2017-12-05T22:56:28.148Z,15.00
2017-12-05T22:58:55.704Z,16.10
2017-12-05T23:01:23.252Z,15.63
2017-12-05T23:03:50.764Z,15.70
2017-12-05T23:06:18.315Z,15.63
2017-12-05T23:08:45.830Z,15.93
2017-12-05T23:11:14.117Z,15.83
2017-12-05T23:13:41.678Z,14.63
2017-12-05T23:16:09.200Z,15.47
2017-12-05T23:18:36.709Z,16.77
2017-12-05T23:21:04.642Z,15.57
2017-12-05T23:23:32.163Z,15.40
2017-12-05T23:25:59.672Z,16.00
2017-12-05T23:28:27.214Z,15.50
2017-12-05T23:30:54.718Z,15.00
2017-12-05T23:33:22.262Z,16.07
2017-12-05T23:35:49.788Z,15.17
2017-12-05T23:38:17.309Z,16.20
2017-12-05T23:40:44.870Z,16.00
2017-12-05T23:43:12.386Z,14.83
2017-12-05T23:45:39.940Z,15.60
2017-12-05T23:48:07.480Z,15.10
2017-12-05T23:50:35.026Z,15.20
2017-12-05T23:53:02.571Z,15.07
2017-12-05T23:55:30.082Z,15.30
2017-12-05T23:57:57.629Z,14.93
